Ana Sayfa
METAR-TAF:

METAR-TAF

Havaalanları :

Batman Havalimanı

Batman, Türkiye

Enlem: 37-52N, Boylam: 041-10E, yükseklik: 540 m

Güncel hava durumu gözlemi

Rapor saat 12:20 UTC de 30 dakika önce yapıldı.
Rüzgar kuzeydan 7 kt
Sıcaklık 38°C
Nem 21%
Basınç 999 hPa
Görüş mesafesi 10 km veya daha fazla
4000 ft yükseklikte az bulutlu

METAR: LTCJ 061220Z 35007KT 9999 FEW040 38/12 Q0999 RMK RWY20 34007KT

Saat: 15:50 (12:50 UTC)

Tahmin

Rapor saat 10:40 UTC de 2 saat ve 10 dakika önce yapıldı.
Ayın 06'si saat 12 UTC'den ayın 07'si saat 12 UTC'ye kadar geçerli Tahmin
Rüzgar kuzeydan 7 kt
Görüş mesafesi 10 km veya daha fazla
4000 ft yükseklikte az bulutlu
Dönüşüyor
ayın 06'si saat 15 UTC'den ayın 06'si saat 18 UTC'ye kadar
Görüş mesafesi 10 km veya daha fazla
1500 m altında bulut yok ve kümülonimbus yok

TAF: LTCJ 061040Z 0612/0712 35007KT 9999 FEW040 BECMG 0615/0618 CAVOK

4.000'den fazla havaalanı için hava durumu gözlemleri ve tahminleri (METAR ve TAF raporları).

Kullanılabilir istasyonlar harita üzerinde sarı ve kırmızı noktalarla gösterilir.

İstasyonun adını görmek için fareyi noktanın üzerinde gezdirin.

Sonrasında hava gözlem ve tahminlerini görmek için tıklayın.

Haritayı değiştirmek için: yaklaştırmak için siyah artı işaretli yeşil düğmeye ve uzaklaştırmak için de eksi işaretli düğmeye hızla tıklayın; bitişik haritalar için yeşil okları kullanın.


METAR-TAF: